createdAt,value
2023-12-19T08:20:21.718Z,1.83
2023-12-19T08:22:49.319Z,1.95
2023-12-19T08:25:16.561Z,2.15
2023-12-19T08:27:43.894Z,2.21
2023-12-19T08:30:12.418Z,2.29
2023-12-19T08:32:40.765Z,2.37
2023-12-19T08:35:08.760Z,2.51
2023-12-19T08:37:37.597Z,2.58
2023-12-19T08:40:07.608Z,2.69
2023-12-19T08:42:34.896Z,2.74
2023-12-19T08:45:03.980Z,2.79
2023-12-19T08:47:31.394Z,2.86
2023-12-19T08:50:00.429Z,2.87
2023-12-19T08:52:38.948Z,3.01
2023-12-19T08:55:08.348Z,2.93
2023-12-19T08:57:36.494Z,2.93
2023-12-19T09:00:05.281Z,3.03
2023-12-19T09:02:32.657Z,2.98
2023-12-19T09:04:59.949Z,3.12
2023-12-19T09:07:29.078Z,3.34
2023-12-19T09:09:57.585Z,3.31
2023-12-19T09:12:25.120Z,3.42
2023-12-19T09:14:52.248Z,3.46
2023-12-19T09:17:19.580Z,3.36
2023-12-19T09:19:46.814Z,3.38
2023-12-19T09:22:14.001Z,3.35
2023-12-19T09:24:41.162Z,3.37
2023-12-19T09:27:09.598Z,3.40
2023-12-19T09:29:36.797Z,3.36
2023-12-19T09:32:06.414Z,3.44
2023-12-19T09:34:33.648Z,3.47
2023-12-19T09:37:00.900Z,3.43
2023-12-19T09:39:28.188Z,3.51
2023-12-19T09:41:55.895Z,3.59
2023-12-19T09:44:26.422Z,3.53
2023-12-19T09:46:54.782Z,3.74
2023-12-19T09:49:24.599Z,3.84
2023-12-19T09:51:54.019Z,3.88
2023-12-19T09:54:22.607Z,3.94
2023-12-19T09:56:51.261Z,4.07
2023-12-19T10:02:29.922Z,4.26
2023-12-19T10:04:57.207Z,4.26
2023-12-19T10:07:24.465Z,4.23
2023-12-19T10:09:55.631Z,4.20
2023-12-19T10:12:24.268Z,4.21
2023-12-19T10:14:51.333Z,4.28
2023-12-19T10:17:19.056Z,4.26
2023-12-19T10:19:47.577Z,4.27
2023-12-19T10:22:18.041Z,4.37
2023-12-19T10:24:45.277Z,4.32
2023-12-19T10:27:12.416Z,4.07
2023-12-19T10:29:42.227Z,4.16
2023-12-19T10:32:18.309Z,4.19
2023-12-19T10:34:48.215Z,4.16
2023-12-19T10:37:19.403Z,4.12
2023-12-19T10:39:46.973Z,4.03
2023-12-19T10:42:14.634Z,4.16
2023-12-19T10:44:42.239Z,4.28
2023-12-19T10:47:11.855Z,4.36
2023-12-19T10:49:40.024Z,4.72
2023-12-19T10:52:11.790Z,4.57
2023-12-19T10:54:41.260Z,4.54
2023-12-19T10:57:18.279Z,4.50
2023-12-19T10:59:55.146Z,4.24
2023-12-19T11:02:36.340Z,4.27
2023-12-19T11:05:17.040Z,4.17
2023-12-19T11:07:50.740Z,4.00
2023-12-19T11:10:23.019Z,4.07
2023-12-19T11:12:51.508Z,4.21
2023-12-19T11:15:19.449Z,4.13
2023-12-19T11:17:55.016Z,4.13
2023-12-19T11:20:31.776Z,4.14
2023-12-19T11:23:17.478Z,4.23
2023-12-19T11:25:52.844Z,4.23
2023-12-19T11:28:20.215Z,4.33
2023-12-19T11:30:47.659Z,4.31
2023-12-19T11:33:29.273Z,4.28
2023-12-19T11:35:56.708Z,4.50
2023-12-19T11:38:29.222Z,4.66
2023-12-19T11:40:59.224Z,4.68
2023-12-19T11:43:52.650Z,4.67
2023-12-19T11:46:19.996Z,4.74
2023-12-19T11:48:51.490Z,4.83
2023-12-19T11:51:52.032Z,4.71
2023-12-19T11:54:22.009Z,4.64
2023-12-19T11:57:01.007Z,4.68
2023-12-19T11:59:50.658Z,4.72
2023-12-19T12:02:32.335Z,4.66
2023-12-19T12:05:10.389Z,4.58
2023-12-19T12:07:49.224Z,4.72
2023-12-19T12:10:23.046Z,4.83
2023-12-19T12:12:51.891Z,4.59
2023-12-19T12:15:23.182Z,4.55
2023-12-19T12:17:51.517Z,4.58
2023-12-19T12:20:26.019Z,4.36
2023-12-19T12:22:53.573Z,4.28
2023-12-19T12:25:27.417Z,4.13
2023-12-19T12:28:07.454Z,4.04
2023-12-19T12:30:34.732Z,3.94
2023-12-19T12:33:05.025Z,4.04
2023-12-19T12:35:37.076Z,4.11
2023-12-19T12:38:07.621Z,3.91
2023-12-19T12:40:36.019Z,3.85
2023-12-19T12:43:37.883Z,4.23
2023-12-19T12:46:11.067Z,4.12
2023-12-19T12:48:40.893Z,4.04
2023-12-19T12:51:09.536Z,4.20
2023-12-19T12:53:37.970Z,4.09
2023-12-19T12:56:10.679Z,4.23
2023-12-19T12:58:38.470Z,4.45
2023-12-19T13:01:06.761Z,4.54
2023-12-19T13:03:34.852Z,4.39
2023-12-19T13:06:03.664Z,4.45
2023-12-19T13:08:31.951Z,4.34
2023-12-19T13:11:02.128Z,4.42
2023-12-19T13:13:31.470Z,4.60
2023-12-19T13:15:59.008Z,4.65
2023-12-19T13:18:26.326Z,4.69
2023-12-19T13:20:54.290Z,4.66
2023-12-19T13:23:21.757Z,4.71
2023-12-19T13:25:49.995Z,4.66
2023-12-19T13:28:18.942Z,4.53
2023-12-19T13:30:47.708Z,4.57
2023-12-19T13:33:15.177Z,4.41
2023-12-19T13:35:43.479Z,4.17
2023-12-19T13:38:11.089Z,4.18
2023-12-19T13:40:38.685Z,4.18
2023-12-19T13:43:07.170Z,4.07
2023-12-19T13:45:54.411Z,4.09
2023-12-19T13:48:43.731Z,4.15
2023-12-19T13:51:13.051Z,4.37
2023-12-19T13:53:41.769Z,4.30
2023-12-19T13:56:10.304Z,4.10
2023-12-19T13:58:40.158Z,3.91
2023-12-19T14:01:09.485Z,3.66
2023-12-19T14:03:36.739Z,3.88
2023-12-19T14:06:04.079Z,3.80
2023-12-19T14:08:32.428Z,3.81
2023-12-19T14:10:59.487Z,3.65
2023-12-19T14:13:26.708Z,3.66
2023-12-19T14:15:54.987Z,3.59
2023-12-19T14:18:24.194Z,3.51
2023-12-19T14:20:51.763Z,3.48
2023-12-19T14:23:18.812Z,3.56
2023-12-19T14:25:45.926Z,3.43
2023-12-19T14:28:13.105Z,3.51
2023-12-19T14:30:40.472Z,3.44
2023-12-19T14:33:08.277Z,3.37
2023-12-19T14:35:39.184Z,3.35
2023-12-19T14:38:07.603Z,3.42
2023-12-19T14:40:34.632Z,3.46
2023-12-19T14:43:01.781Z,3.26
2023-12-19T14:45:28.977Z,3.38
2023-12-19T14:47:56.287Z,3.48
2023-12-19T14:50:23.942Z,3.64
2023-12-19T14:52:52.525Z,3.71
2023-12-19T14:55:19.724Z,3.65
2023-12-19T14:57:47.114Z,3.46
2023-12-19T15:00:15.807Z,3.35
2023-12-19T15:02:42.824Z,3.32
2023-12-19T15:05:11.245Z,3.48
2023-12-19T15:07:39.091Z,3.38
2023-12-19T15:10:10.942Z,3.17
2023-12-19T15:12:39.155Z,3.29
2023-12-19T15:15:07.511Z,3.18
2023-12-19T15:17:34.909Z,2.89
2023-12-19T15:20:02.422Z,2.81
2023-12-19T15:22:29.796Z,2.89
2023-12-19T15:24:56.865Z,2.95
2023-12-19T15:27:25.331Z,3.23
2023-12-19T15:29:55.078Z,3.17
2023-12-19T15:32:22.289Z,3.20
2023-12-19T15:34:49.472Z,3.19
2023-12-19T15:37:16.709Z,3.18
2023-12-19T15:39:43.910Z,3.30
2023-12-19T15:42:10.996Z,3.44
2023-12-19T15:44:39.409Z,3.39
2023-12-19T15:47:06.901Z,3.31
2023-12-19T15:49:36.257Z,3.29
2023-12-19T15:52:04.046Z,3.30
2023-12-19T15:54:31.314Z,3.34
2023-12-19T15:56:58.543Z,3.34
2023-12-19T15:59:27.064Z,3.39
2023-12-19T16:01:55.788Z,3.44
2023-12-19T16:04:22.964Z,3.31
2023-12-19T16:06:50.114Z,3.31
2023-12-19T16:09:17.278Z,3.46
2023-12-19T16:11:44.315Z,3.32
2023-12-19T16:14:11.690Z,3.20
2023-12-19T16:16:40.377Z,3.22
2023-12-19T16:19:09.277Z,3.25
2023-12-19T16:21:36.712Z,3.35
2023-12-19T16:24:05.192Z,3.40
2023-12-19T16:26:33.495Z,3.27
2023-12-19T16:29:01.428Z,3.34
2023-12-19T16:31:29.071Z,3.36
2023-12-19T16:33:56.759Z,3.26
2023-12-19T16:36:25.583Z,3.14
2023-12-19T16:38:53.331Z,3.08
2023-12-19T16:41:23.667Z,3.09
2023-12-19T16:43:51.797Z,3.15
2023-12-19T16:46:19.491Z,3.11
2023-12-19T16:48:47.002Z,2.94
2023-12-19T16:51:14.352Z,2.80
2023-12-19T16:53:43.351Z,2.94
2023-12-19T16:56:14.157Z,3.00
2023-12-19T16:58:44.264Z,2.96
2023-12-19T17:01:14.909Z,2.81
2023-12-19T17:03:43.128Z,2.94
2023-12-19T17:06:11.125Z,3.02
2023-12-19T17:08:38.327Z,3.04
2023-12-19T17:11:08.571Z,3.07
2023-12-19T17:13:36.591Z,3.09
2023-12-19T17:16:04.471Z,3.10
2023-12-19T17:18:31.829Z,3.01
2023-12-19T17:20:58.931Z,2.97
2023-12-19T17:23:33.576Z,3.01
2023-12-19T17:26:09.564Z,2.97
2023-12-19T17:28:37.839Z,2.89
2023-12-19T17:31:05.302Z,3.04
2023-12-19T17:33:32.627Z,2.95
2023-12-19T17:35:59.994Z,2.83
2023-12-19T17:38:27.096Z,2.92
2023-12-19T17:40:54.149Z,2.84
2023-12-19T17:43:22.688Z,2.72
2023-12-19T17:45:50.054Z,2.76
2023-12-19T17:48:17.324Z,2.82
2023-12-19T17:50:44.546Z,2.82
2023-12-19T17:53:11.534Z,2.95
2023-12-19T17:55:38.514Z,2.86
2023-12-19T17:58:05.596Z,2.58
2023-12-19T18:00:34.094Z,2.52
2023-12-19T18:03:01.140Z,2.52
2023-12-19T18:05:28.366Z,2.53
2023-12-19T18:07:55.532Z,2.53
2023-12-19T18:10:23.305Z,2.45
2023-12-19T18:12:50.589Z,2.53
2023-12-19T18:15:17.765Z,2.55
2023-12-19T18:17:46.182Z,2.41
2023-12-19T18:20:13.494Z,2.34
2023-12-19T18:22:40.594Z,2.41
2023-12-19T18:25:09.177Z,2.46
2023-12-19T18:27:36.421Z,2.40
2023-12-19T18:30:07.791Z,2.44
2023-12-19T18:32:35.913Z,2.50
2023-12-19T18:35:06.585Z,2.47
2023-12-19T18:37:33.631Z,2.53
2023-12-19T18:40:02.399Z,2.40
2023-12-19T18:42:29.562Z,2.34
2023-12-19T18:44:56.698Z,2.34
2023-12-19T18:47:24.112Z,2.39
2023-12-19T18:49:51.225Z,2.56
2023-12-19T18:52:20.081Z,2.71
2023-12-19T18:54:47.328Z,2.66
2023-12-19T18:57:15.583Z,2.50
2023-12-19T18:59:42.618Z,2.54
2023-12-19T19:02:09.673Z,2.54
2023-12-19T19:04:36.840Z,2.63
2023-12-19T19:07:04.413Z,2.54
2023-12-19T19:09:33.961Z,2.48
2023-12-19T19:12:01.370Z,2.49
2023-12-19T19:14:29.081Z,2.45
2023-12-19T19:16:56.150Z,2.43
2023-12-19T19:19:24.046Z,2.47
2023-12-19T19:21:51.342Z,2.52
2023-12-19T19:24:18.661Z,2.53
2023-12-19T19:26:47.396Z,2.54
2023-12-19T19:29:14.504Z,2.51
2023-12-19T19:31:42.068Z,2.47
2023-12-19T19:34:10.613Z,2.47
2023-12-19T19:36:38.203Z,2.56
2023-12-19T19:39:08.994Z,2.46
2023-12-19T19:41:40.147Z,2.58
2023-12-19T19:44:09.867Z,2.47
2023-12-19T19:46:36.931Z,2.49
2023-12-19T19:49:05.333Z,2.46
2023-12-19T19:51:32.806Z,2.38
2023-12-19T19:53:59.870Z,2.39
2023-12-19T19:56:27.033Z,2.46
2023-12-19T19:58:55.459Z,2.45
2023-12-19T20:01:23.848Z,2.51
2023-12-19T20:03:51.159Z,2.89
2023-12-19T20:06:18.879Z,2.99
2023-12-19T20:08:46.014Z,2.86
2023-12-19T20:11:13.214Z,2.52
2023-12-19T20:13:40.280Z,2.55
2023-12-19T20:16:07.854Z,2.60
2023-12-19T20:18:36.338Z,2.58
2023-12-19T20:21:03.488Z,2.44
2023-12-19T20:23:30.556Z,2.41
2023-12-19T20:25:58.355Z,2.45
2023-12-19T20:28:25.693Z,2.56
2023-12-19T20:30:53.630Z,2.70
2023-12-19T20:33:20.883Z,2.73
2023-12-19T20:35:50.010Z,2.55
2023-12-19T20:38:17.169Z,2.51
2023-12-19T20:40:44.547Z,2.42
2023-12-19T20:43:12.644Z,2.41
2023-12-19T20:45:40.526Z,2.18
2023-12-19T20:48:08.677Z,2.04
2023-12-19T20:50:36.067Z,1.97
2023-12-19T20:53:05.918Z,1.97
2023-12-19T20:55:33.388Z,1.95
2023-12-19T20:58:00.699Z,1.76
2023-12-19T21:00:27.923Z,1.86
2023-12-19T21:02:55.137Z,1.73
2023-12-19T21:05:22.530Z,1.78
2023-12-19T21:07:50.599Z,1.78
2023-12-19T21:10:20.465Z,1.83
2023-12-19T21:12:47.876Z,1.69
2023-12-19T21:15:15.863Z,2.15
2023-12-19T21:17:42.995Z,1.91
2023-12-19T21:20:12.490Z,1.76
2023-12-19T21:22:39.671Z,1.62
2023-12-19T21:25:08.086Z,1.52
2023-12-19T21:27:36.526Z,1.42
2023-12-19T21:30:05.247Z,1.36
2023-12-19T21:32:32.681Z,1.36
2023-12-19T21:35:04.965Z,1.35
2023-12-19T21:37:32.847Z,1.28
2023-12-19T21:40:00.673Z,1.18
2023-12-19T21:42:27.937Z,1.17
2023-12-19T21:44:58.048Z,1.12
2023-12-19T21:47:25.210Z,1.24
2023-12-19T21:49:52.366Z,1.12
2023-12-19T21:52:20.143Z,1.11
2023-12-19T21:54:47.491Z,1.13
2023-12-19T21:57:14.604Z,1.25
2023-12-19T21:59:41.670Z,1.20
2023-12-19T22:02:10.395Z,1.23
2023-12-19T22:04:37.498Z,1.24
2023-12-19T22:07:05.051Z,1.25
2023-12-19T22:09:33.924Z,1.40
2023-12-19T22:12:01.422Z,1.34
2023-12-19T22:14:28.481Z,1.24
2023-12-19T22:16:55.518Z,1.22
2023-12-19T22:19:24.122Z,1.25
2023-12-19T22:21:51.626Z,1.30
2023-12-19T22:24:18.781Z,1.30
2023-12-19T22:26:46.077Z,1.24
2023-12-19T22:29:13.243Z,1.34
2023-12-19T22:31:40.755Z,1.43
2023-12-19T22:34:07.914Z,1.41
